Home > Products > Valid Products > TAF

000
FTUS43 KMPX 251000 AAD
TAFAXN
TAF AMD
KAXN 251039Z 2511/2606 21014KT P6SM SCT020 BKN035
      TEMPO 2511/2512 BKN008
     FM251800 30007KT P6SM BKN040
     FM260100 29004KT P6SM SKC=



000
FTUS43 KMPX 250900 AAC
TAFRWF
TAF AMD
KRWF 250910Z 2509/2606 15009KT 6SM TSRA SCT020 BKN035CB
     FM251000 16009KT P6SM SCT020 BKN035
     FM251800 27005KT P6SM BKN040
     FM260100 30005KT P6SM SKC=



000
FTUS43 KMPX 250800 AAC
TAFAXN
TAF AMD
KAXN 250843Z 2509/2606 12009KT 6SM -RA VCTS SCT035CB OVC060
     FM250930 16007KT P6SM SCT020 BKN035
     FM251800 30007KT P6SM BKN040
     FM260100 29004KT P6SM SKC=



000
FTUS43 KMPX 250800 AAA
TAFMSP
TAF AMD
KMSP 250839Z 2509/2612 14009KT P6SM SCT040 BKN080
     FM250930 14010KT 6SM -SHRA VCTS SCT035 OVC050CB
      TEMPO 2510/2511 3SM TSRA BR OVC030CB
     FM251200 17011KT P6SM SCT020 BKN035
     FM251900 22007KT P6SM BKN040
     FM260200 29005KT P6SM FEW040=



000
FTUS43 KMPX 250800 AAB
TAFRWF
TAF AMD
KRWF 250815Z 2508/2606 15009KT 6SM TSRA SCT020 BKN035CB
      TEMPO 2509/2510 2SM TSRA BR OVC035CB
     FM251030 16009KT P6SM SCT020 BKN035
     FM251800 27005KT P6SM BKN040
     FM260100 30005KT P6SM SKC=



000
FTUS43 KMPX 250700 AAB
TAFAXN
TAF AMD
KAXN 250725Z 2507/2606 13010KT P6SM SCT035 BKN050
     FM250800 21010G15KT 5SM -TSRA BR OVC035CB
      TEMPO 2508/2509 2SM TSRA OVC035CB
     FM251000 16007KT P6SM SCT020 BKN035
     FM251800 30007KT P6SM BKN040
     FM260100 29004KT P6SM SKC=



000
FTUS43 KMPX 250700 AAA
TAFRWF
TAF AMD
KRWF 250719Z 2507/2606 13009KT P6SM SCT020 BKN080
     FM250900 16009KT 5SM TSRA SCT020 BKN035CB
      TEMPO 2509/2510 2SM TSRA BR OVC035CB
     FM251030 16009KT P6SM SCT020 BKN035
     FM251800 27005KT P6SM BKN040
     FM260100 30005KT P6SM SKC=



000
FTUS43 KMPX 250600 AAA
TAFAXN
TAF AMD
KAXN 250613Z 2506/2606 13010KT P6SM SCT035 BKN100
     FM250730 21010G15KT 5SM -TSRA BR OVC035CB
      TEMPO 2508/2509 2SM TSRA OVC035CB
     FM251000 16007KT P6SM SCT020 BKN035
     FM251800 30007KT P6SM BKN040
     FM260100 29004KT P6SM SKC=



000
FTUS43 KMPX 250500
TAFSTC
TAF
KSTC 250527Z 2506/2606 15005KT P6SM SCT080
     FM250900 15007KT 6SM -SHRA VCTS SCT030 OVC040CB
      TEMPO 2509/2511 3SM -TSRA BR OVC030CB
     FM251200 16007KT P6SM SCT020 BKN035
     FM251900 25006KT P6SM BKN040
     FM260100 32003KT P6SM SKC=



000
FTUS43 KMPX 250500
TAFEAU
TAF
KEAU 250527Z 2506/2606 16003KT P6SM FEW050
     FM251200 16008KT P6SM VCSH SCT035 OVC050
     FM251500 18010KT P6SM BKN040
     FM260200 19004KT 4SM BR SCT040=



000
FTUS43 KMPX 250500
TAFRWF
TAF
KRWF 250527Z 2506/2606 13008KT P6SM SCT040 BKN080
      TEMPO 2507/2510 5SM -TSRA BR OVC035CB
     FM251000 16009KT P6SM SCT020 BKN035
     FM251800 27005KT P6SM BKN040
     FM260100 30005KT P6SM SKC=



000
FTUS43 KMPX 250500
TAFMSP
TAF
KMSP 250527Z 2506/2612 17009KT P6SM SCT040 BKN080
     FM251000 15010KT 6SM -SHRA VCTS SCT035 OVC050CB
      TEMPO 2510/2512 3SM TSRA BR OVC030CB
     FM251300 17011KT P6SM SCT020 BKN035
     FM251900 22007KT P6SM BKN040
     FM260200 29005KT P6SM FEW040=



000
FTUS43 KMPX 250500
TAFAXN
TAF
KAXN 250527Z 2506/2606 13010KT P6SM SCT035 BKN060
      TEMPO 2507/2510 5SM -TSRA BR OVC035CB
     FM251000 16007KT P6SM SCT020 BKN035
     FM251800 30007KT P6SM BKN040
     FM260100 29004KT P6SM SKC=



000
FTUS43 KMPX 250200 AAA
TAFSTC
TAF AMD
KSTC 250236Z 2503/2524 17007KT P6SM BKN040
     FM250900 15007KT 6SM -SHRA VCTS SCT030 OVC040CB
      TEMPO 2509/2511 3SM -TSRA BR OVC030CB
     FM251200 15007KT P6SM SCT020 BKN035
     FM252100 30006KT P6SM BKN040=



000
FTUS43 KMPX 250200 AAA
TAFMSP
TAF AMD
KMSP 250233Z 2503/2606 17009KT P6SM BKN080
     FM250930 15011KT 6SM -SHRA VCTS SCT035 OVC050CB
      TEMPO 2510/2512 3SM TSRA BR OVC030CB
     FM251300 17010KT P6SM SCT020 BKN035
     FM252000 22007KT P6SM BKN040
     FM260200 28005KT P6SM FEW040=



000
FTUS43 KMPX 250000 CCA
TAFSTC
TAF COR
KSTC 250016Z 2500/2524 19008KT P6SM SCT025 BKN040
     FM250200 15007KT P6SM SCT035 BKN060 PROB30 2509/2512 4SM -TSRA
      BR OVC035CB
     FM251200 15007KT P6SM SCT020 BKN035
     FM252100 30006KT P6SM BKN040=



000
FTUS43 KMPX 242300
TAFEAU
TAF
KEAU 242329Z 2500/2524 19009KT P6SM OVC250
     FM250300 16007KT P6SM FEW060 PROB30 2509/2514 4SM -TSRA BR
      OVC035CB
     FM251500 18010KT P6SM SCT020 BKN040=



000
FTUS43 KMPX 242300
TAFAXN
TAF
KAXN 242329Z 2500/2524 17013KT P6SM SCT022 SCT060
     FM250100 15012KT P6SM SCT035 BKN060
      TEMPO 2507/2511 5SM -TSRA BR OVC035CB
     FM251100 16007KT P6SM SCT020 BKN035
     FM252000 32008KT P6SM BKN040=



000
FTUS43 KMPX 242300
TAFRWF
TAF
KRWF 242329Z 2500/2524 18013KT P6SM FEW060
     FM250300 15012KT P6SM SCT035 BKN060
      TEMPO 2507/2511 5SM -TSRA BR OVC035CB
     FM251100 17008KT P6SM SCT020 BKN035
     FM252000 30005KT P6SM BKN040=



000
FTUS43 KMPX 242300
TAFSTC
TAF
KSTC 242329Z 2500/2524 16008KT P6SM BKN022
     FM250100 13007KT P6SM SCT035 BKN060 PROB30 2509/2512 4SM -TSRA
      BR OVC035CB
     FM251200 15007KT P6SM SCT020 BKN035
     FM252100 30006KT P6SM BKN040=



000
FTUS43 KMPX 242300
TAFMSP
TAF
KMSP 242329Z 2500/2606 17012KT P6SM FEW060
     FM250500 16011KT P6SM SCT035 BKN060 PROB30 2509/2514 4SM -TSRA
      BR OVC035CB
     FM251400 17010KT P6SM SCT020 BKN040
     FM252000 22007KT P6SM BKN040
     FM260200 28005KT P6SM FEW040=



000
FTUS43 KMPX 242000 AAA
TAFMSP
TAF AMD
KMSP 242034Z 2421/2524 25008KT P6SM -SHRA BKN050 OVC090
     FM250000 17008KT P6SM SCT050 BKN080
     FM250700 14010KT P6SM -SHRA OVC050 PROB30 2508/2512 5SM -TSRA
      OVC040CB
     FM251300 14010KT P6SM SCT020 BKN040
     FM251800 16010KT P6SM BKN040=



000
FTUS43 KMPX 242000 AAA
TAFRWF
TAF AMD
KRWF 242025Z 2420/2518 16009KT P6SM -SHRA BKN050 OVC100
      TEMPO 2420/2421 5SM -TSRA BKN040CB
     FM250000 15012KT P6SM SCT050 BKN100
     FM250300 15012KT P6SM -SHRA BKN050
     FM251000 17010KT P6SM SCT025 BKN050=



000
FTUS43 KMPX 242000 AAA
TAFSTC
TAF AMD
KSTC 242023Z 2420/2518 21008KT P6SM SCT040 BKN100
     FM242100 17007KT 6SM -SHRA BKN040 OVC090
     FM242300 15008KT P6SM SCT050 BKN100
     FM250600 14008KT P6SM BKN070
     FM251400 15007KT P6SM SCT020 BKN040=



000
FTUS43 KMPX 241800 AAA
TAFAXN
TAF AMD
KAXN 241838Z 2419/2518 15013G21KT P6SM -SHRA SCT050 BKN080
      TEMPO 2419/2420 5SM TSRA BKN050CB
     FM242000 15011G18KT P6SM VCSH SCT050 BKN090
     FM242200 15010KT P6SM SCT050 BKN120
     FM250500 14010KT P6SM BKN060
     FM251300 15007KT P6SM SCT020 BKN040=



000
FTUS43 KMPX 241700
TAFEAU
TAF
KEAU 241720Z 2418/2518 19007KT P6SM SCT050 SCT250
     FM250400 15005KT P6SM BKN080
     FM251100 14006KT P6SM SCT040 BKN080
     FM251500 16010KT P6SM SCT020 BKN040=



000
FTUS43 KMPX 241700
TAFRWF
TAF
KRWF 241720Z 2418/2518 16013G21KT P6SM SCT100 BKN200
     FM242100 16013G21KT P6SM -SHRA BKN050 OVC100
      TEMPO 2421/2424 5SM -TSRA BKN040CB
     FM250100 15012KT P6SM SCT050 BKN100
     FM250300 15012KT P6SM -SHRA BKN050 PROB30 2504/2508 -TSRA
      OVC040CB
     FM251000 17010KT P6SM SCT025 BKN050=



000
FTUS43 KMPX 241700
TAFMSP
TAF
KMSP 241720Z 2418/2524 16007KT P6SM FEW050 BKN250
     FM241900 16010KT P6SM FEW050 SCT100
     FM250100 15008KT P6SM SCT050 BKN080
     FM250700 14010KT P6SM -SHRA OVC050 PROB30 2508/2512 5SM -TSRA
      OVC040CB
     FM251300 14010KT P6SM SCT020 BKN040
     FM251800 16010KT P6SM BKN040=



000
FTUS43 KMPX 241700
TAFAXN
TAF
KAXN 241720Z 2418/2518 16013G21KT P6SM SCT100 BKN200
     FM242100 15011KT P6SM VCSH SCT050 BKN090
     FM250500 14010KT P6SM BKN060
     FM251300 15007KT P6SM SCT020 BKN040=



000
FTUS43 KMPX 241700
TAFSTC
TAF
KSTC 241720Z 2418/2518 17010G18KT P6SM SCT100 BKN200
     FM242300 15008KT P6SM SCT050 BKN100
     FM250600 14008KT P6SM BKN070
     FM251400 15007KT P6SM SCT020 BKN040=



000
FTUS43 KMPX 241400 AAA
TAFMSP
TAF AMD
KMSP 241456Z 2415/2518 16007KT P6SM SCT250
     FM241900 16010KT P6SM FEW050 SCT120
     FM250100 15008KT P6SM BKN080
     FM250700 14010KT P6SM -SHRA OVC050 PROB30 2507/2511 -TSRA
      OVC040CB
     FM251300 14010KT P6SM SCT020 BKN100=



000
FTUS43 KMPX 241100
TAFEAU
TAF
KEAU 241129Z 2412/2512 VRB02KT P6SM BKN070
     FM241600 17007KT P6SM SCT070 SCT250
     FM250300 15005KT P6SM BKN080=



000
FTUS43 KMPX 241100
TAFSTC
TAF
KSTC 241129Z 2412/2512 14005KT P6SM SCT200
      TEMPO 2412/2413 5SM BR
     FM241700 17010G18KT P6SM SCT100
     FM250100 15008KT P6SM BKN100
     FM250600 14008KT P6SM BKN070=



000
FTUS43 KMPX 241100
TAFRWF
TAF
KRWF 241129Z 2412/2512 15004KT P6SM SCT250
     FM241700 17013G22KT P6SM SCT100 BKN200
     FM250100 15012KT P6SM SCT070 BKN120
     FM250500 15012KT P6SM BKN060 PROB30 2506/2509 -TSRA OVC040CB=



000
FTUS43 KMPX 241100
TAFAXN
TAF
KAXN 241129Z 2412/2512 14005KT P6SM SCT250
     FM241800 16013G21KT P6SM SCT100 BKN200
     FM250000 15011KT P6SM BKN100
     FM250500 14010KT P6SM BKN060=



000
FTUS43 KMPX 241100
TAFMSP
TAF
KMSP 241129Z 2412/2518 VRB03KT P6SM FEW060
     FM241500 15007KT P6SM SCT250
     FM241900 16010KT P6SM FEW050 SCT120
     FM250100 15008KT P6SM BKN080
     FM250700 14010KT P6SM -SHRA OVC050 PROB30 2507/2511 -TSRA
      OVC040CB
     FM251300 14010KT P6SM SCT020 BKN100=



000
FTUS43 KMPX 240800 AAA
TAFMSP
TAF AMD
KMSP 240848Z 2409/2512 VRB03KT P6SM SKC
     FM241500 15007KT P6SM SCT250
     FM241900 16010KT P6SM FEW050 SCT120
     FM250100 15008KT P6SM BKN080
     FM250700 16010KT P6SM -SHRA OVC050 PROB30 2507/2511 -TSRA
      OVC040CB=



000
FTUS43 KMPX 240800 AAA
TAFEAU
TAF AMD
KEAU 240847Z 2409/2506 00000KT P6SM SCT070
     FM241300 13003KT P6SM FEW070
     FM241800 17007KT P6SM SCT250
     FM250300 16005KT P6SM BKN080=



000
FTUS43 KMPX 240500
TAFMSP
TAF
KMSP 240523Z 2406/2512 VRB03KT P6SM SKC
     FM241500 15007KT P6SM SCT250
     FM241900 16010KT P6SM FEW050 SCT120
     FM250100 15008KT P6SM BKN080
     FM250700 16010KT P6SM -SHRA OVC050 PROB30 2507/2511 -TSRA
      OVC040CB=



000
FTUS43 KMPX 240500
TAFAXN
TAF
KAXN 240523Z 2406/2506 08004KT P6SM SKC
     FM240800 15004KT P6SM SCT250
     FM241600 16010G18KT P6SM SCT100 BKN200
     FM250000 16011KT P6SM BKN100=



000
FTUS43 KMPX 240500
TAFSTC
TAF
KSTC 240523Z 2406/2506 VRB02KT P6SM SKC
     FM240900 00000KT 5SM BR FEW250
     FM241200 14005KT P6SM SCT200
     FM241700 17010G16KT P6SM SCT100
     FM250100 15008KT P6SM BKN100=



000
FTUS43 KMPX 240500
TAFEAU
TAF
KEAU 240523Z 2406/2506 03003KT P6SM SKC
     FM240800 00000KT 3SM BR SKC
      TEMPO 2410/2412 1/2SM FG VV002
     FM241300 16005KT P6SM SCT250
     FM241800 17007KT P6SM SCT250
     FM250300 16005KT P6SM BKN080=



000
FTUS43 KMPX 240500
TAFRWF
TAF
KRWF 240523Z 2406/2506 09004KT P6SM SKC
     FM240800 15004KT P6SM SCT250
     FM241600 17012G18KT P6SM SCT100 BKN200
     FM250100 15010KT P6SM SCT100 BKN250 PROB30 2503/2506 -TSRA
      OVC040CB=



000
FTUS43 KMPX 240200 AAA
TAFMSP
TAF AMD
KMSP 240317Z 2403/2506 03004KT P6SM SKC
     FM240600 08003KT P6SM SKC
     FM241500 16007KT P6SM SCT250
     FM242100 18010KT P6SM SCT120=



000
FTUS43 KMPX 232300
TAFEAU
TAF
KEAU 232331Z 2400/2424 35006KT P6SM FEW050
     FM240100 03003KT P6SM SKC
     FM240900 00000KT 3SM BR SKC
      TEMPO 2410/2412 1/2SM FG VV002
     FM241300 16005KT P6SM SCT250
     FM241800 18007KT P6SM SCT250=



000
FTUS43 KMPX 232300
TAFSTC
TAF
KSTC 232331Z 2400/2424 36006KT P6SM FEW050
     FM240200 VRB02KT P6SM SKC
     FM240900 00000KT 5SM BR FEW250
     FM241200 14005KT P6SM SCT200
     FM241700 17010G16KT P6SM SCT100=



000
FTUS43 KMPX 232300
TAFRWF
TAF
KRWF 232331Z 2400/2424 04007KT P6SM FEW060
     FM240100 03004KT P6SM SKC
     FM240800 15004KT P6SM SCT250
     FM241600 17010G18KT P6SM VCSH SCT100 BKN200 PROB30 2416/2418
      -TSRA BKN060CB BKN100=



000
FTUS43 KMPX 232300
TAFAXN
TAF
KAXN 232331Z 2400/2424 36007KT P6SM FEW050
     FM240100 03004KT P6SM SKC
     FM240800 15004KT P6SM SCT250
     FM241600 16010G18KT P6SM SCT100 BKN200=



000
FTUS43 KMPX 232300
TAFMSP
TAF
KMSP 232331Z 2400/2506 35008KT P6SM FEW050
     FM240100 03004KT P6SM SKC
     FM240600 08003KT P6SM SKC
     FM241500 16007KT P6SM SCT250
     FM242100 18010KT P6SM SCT120=



000
FTUS43 KMPX 232100 AAA
TAFMSP
TAF AMD
KMSP 232054Z 2322/2424 35008KT P6SM FEW050
     FM240100 03004KT P6SM SKC
     FM240600 08003KT P6SM SKC
     FM241500 16007KT P6SM SCT250=



000
FTUS43 KMPX 231700
TAFRWF
TAF
KRWF 231720Z 2318/2418 04007KT P6SM FEW060 SCT150
     FM240100 03004KT P6SM SKC
     FM240800 15004KT P6SM SCT250
     FM241600 17010G18KT P6SM VCSH SCT100 BKN200 PROB30 2416/2418
      -TSRA BKN060CB BKN100=



000
FTUS43 KMPX 231700
TAFSTC
TAF
KSTC 231720Z 2318/2418 36006KT P6SM SCT050 SCT200
     FM240200 VRB02KT P6SM SKC
     FM240900 00000KT 5SM BR FEW250
     FM241200 14005KT P6SM SCT200=



000
FTUS43 KMPX 231700
TAFEAU
TAF
KEAU 231720Z 2318/2418 35006KT P6SM SCT050
     FM240100 03003KT P6SM SKC
     FM240900 00000KT 3SM BR SKC
      TEMPO 2410/2412 1/2SM FG VV002
     FM241300 16005KT P6SM SCT250=



000
FTUS43 KMPX 231700
TAFAXN
TAF
KAXN 231720Z 2318/2418 36007KT P6SM FEW080 SCT150
     FM240100 03004KT P6SM SKC
     FM240800 15004KT P6SM SCT250
     FM241600 17010G18KT P6SM SCT100 BKN200=



000
FTUS43 KMPX 231700
TAFMSP
TAF
KMSP 231720Z 2318/2424 36008KT P6SM SCT050
     FM240100 03004KT P6SM SKC
     FM240600 08003KT P6SM SKC
     FM241500 16007KT P6SM SCT250=



000
FTUS43 KMPX 231500 AAA
TAFMSP
TAF AMD
KMSP 231533Z 2316/2418 35005KT P6SM SKC
     FM231700 36008KT P6SM SCT050
     FM240000 03004KT P6SM SKC
     FM240400 VRB03KT P6SM SKC
     FM241500 15007KT P6SM SCT250=



000
FTUS43 KMPX 231100
TAFMSP
TAF
KMSP 231128Z 2312/2418 35005KT P6SM SKC
     FM231700 36008KT P6SM SCT050
     FM240000 03004KT P6SM SKC
     FM240400 VRB03KT P6SM SKC
     FM241500 15007KT P6SM SCT250=



000
FTUS43 KMPX 231100
TAFRWF
TAF
KRWF 231128Z 2312/2412 36005KT P6SM SKC
     FM231800 02008KT P6SM FEW080 SCT150
     FM240300 09004KT P6SM SKC
     FM240700 16004KT P6SM SCT250=



000
FTUS43 KMPX 231100
TAFEAU
TAF
KEAU 231128Z 2312/2412 36004KT P6SM SKC
      TEMPO 2312/2313 1SM BR SCT002
     FM231700 35008KT P6SM SCT050
     FM240100 03004KT P6SM SKC
     FM240900 00000KT 3SM BR SKC
      TEMPO 2410/2412 1/2SM FG VV002=



000
FTUS43 KMPX 231100
TAFSTC
TAF
KSTC 231128Z 2312/2412 34003KT P6SM SKC
     FM231730 36006KT P6SM FEW050 SCT200
     FM240100 VRB02KT P6SM SKC=



000
FTUS43 KMPX 231100
TAFAXN
TAF
KAXN 231128Z 2312/2412 36005KT P6SM FEW250
     FM231800 36007KT P6SM FEW080 SCT150
     FM240100 06004KT P6SM SKC
     FM240800 15004KT P6SM SCT250=



000
FTUS43 KMPX 230900 AAB
TAFEAU
TAF AMD
KEAU 230921Z 2309/2406 01004KT 6SM BR SKC
      TEMPO 2309/2312 1SM BR SCT002
     FM231700 01008KT P6SM SCT050
     FM240100 03004KT P6SM SKC=



000
FTUS43 KMPX 230800 AAA
TAFEAU
TAF AMD
KEAU 230859Z 2309/2406 01004KT P6SM SKC
     FM231700 01008KT P6SM SCT050
     FM240100 03004KT P6SM SKC=



000
FTUS43 KMPX 230800 AAA
TAFRWF
TAF AMD
KRWF 230858Z 2309/2406 36005KT P6SM SKC
     FM231800 02008KT P6SM SCT080 BKN150
     FM240100 09004KT P6SM SKC=



000
FTUS43 KMPX 230800 AAA
TAFSTC
TAF AMD
KSTC 230856Z 2309/2406 34003KT P6SM SKC
     FM231730 36006KT P6SM FEW050 SCT200
     FM240100 03004KT P6SM SKC=



000
FTUS43 KMPX 230800 AAA
TAFAXN
TAF AMD
KAXN 230854Z 2309/2406 36005KT P6SM FEW250
     FM231800 02008KT P6SM SCT080 BKN150
     FM240100 06004KT P6SM SKC=



000
FTUS43 KMPX 230800 AAA
TAFMSP
TAF AMD
KMSP 230848Z 2309/2412 36005KT P6SM SKC
     FM231700 01008KT P6SM SCT050
     FM240000 04004KT P6SM SKC
     FM240400 VRB03KT P6SM SKC=



000
FTUS43 KMPX 230500
TAFAXN
TAF
KAXN 230520Z 2306/2406 35005KT P6SM SKC
     FM231600 01009KT P6SM SCT040
     FM240100 06004KT P6SM SKC=



000
FTUS43 KMPX 230500
TAFEAU
TAF
KEAU 230520Z 2306/2406 01004KT P6SM SKC
     FM231500 01008KT P6SM SCT040
     FM240100 03004KT P6SM SKC=



000
FTUS43 KMPX 230500
TAFRWF
TAF
KRWF 230520Z 2306/2406 34005KT P6SM SKC
     FM231600 01008KT P6SM SCT040
     FM240100 07004KT P6SM SKC=



000
FTUS43 KMPX 230500
TAFSTC
TAF
KSTC 230520Z 2306/2406 34004KT P6SM SKC
     FM231500 36008KT P6SM SCT040
     FM240100 06004KT P6SM SKC=



000
FTUS43 KMPX 230500
TAFMSP
TAF
KMSP 230520Z 2306/2412 36005KT P6SM SKC
     FM231500 01008KT P6SM SCT040
     FM240000 04004KT P6SM SKC
     FM240400 VRB03KT P6SM SKC=



000
FTUS43 KMPX 230300 AAA
TAFMSP
TAF AMD
KMSP 230321Z 2303/2406 36005KT P6SM SKC
     FM231500 01008KT P6SM SCT040
     FM240000 VRB04KT P6SM SKC=



000
FTUS43 KMPX 222300
TAFSTC
TAF
KSTC 222320Z 2300/2324 34008KT P6SM SKC
     FM230600 36004KT P6SM SKC
     FM231500 35008KT P6SM SCT040=



000
FTUS43 KMPX 222300
TAFMSP
TAF
KMSP 222320Z 2300/2406 33012KT P6SM SKC
     FM230600 36005KT P6SM SKC
     FM231500 01008KT P6SM SCT040
     FM240000 VRB04KT P6SM SKC=



000
FTUS43 KMPX 222300
TAFRWF
TAF
KRWF 222320Z 2300/2324 33010KT P6SM SKC
     FM230600 36005KT P6SM SKC
     FM231600 01008KT P6SM SCT040=



000
FTUS43 KMPX 222300
TAFAXN
TAF
KAXN 222320Z 2300/2324 34009KT P6SM SKC
     FM230600 36005KT P6SM SKC
     FM231600 01007KT P6SM SCT040=



000
FTUS43 KMPX 222300
TAFEAU
TAF
KEAU 222320Z 2300/2324 33008KT P6SM SCT050
     FM230600 01004KT P6SM SKC
     FM231500 01007KT P6SM SCT040=



000
FTUS43 KMPX 222100 AAA
TAFMSP
TAF AMD
KMSP 222135Z 2222/2324 33014G21KT P6SM SCT035
     FM230000 33012KT P6SM SKC
     FM231500 35008KT P6SM SCT040=



000
FTUS43 KMPX 221910 AAA
TAFRWF
TAF AMD
KRWF 221910Z 2219/2318 35011G17KT P6SM SCT250
     FM230000 34007KT P6SM SKC
     FM231600 36006KT P6SM SCT040=



000
FTUS43 KMPX 221909 AAA
TAFAXN
TAF AMD
KAXN 221909Z 2219/2318 35014G21KT P6SM SCT250
     FM222300 34008KT P6SM SKC
     FM231600 34008KT P6SM SCT040=



000
FTUS43 KMPX 221909 AAA
TAFEAU
TAF AMD
KEAU 221909Z 2219/2318 32012KT P6SM SCT035 BKN045
     FM222300 33008KT P6SM SKC
     FM231500 34007KT P6SM SCT040=



000
FTUS43 KMPX 221725
TAFSTC
TAF
KSTC 221725Z 2218/2318 35015G22KT P6SM SCT030
     FM230000 34008KT P6SM SKC
     FM231500 35007KT P6SM SCT040=



000
FTUS43 KMPX 221725
TAFEAU
TAF
KEAU 221725Z 2218/2318 32012G20KT P6SM BKN030
     FM222300 33008KT P6SM SKC
     FM231500 34007KT P6SM SCT040=



000
FTUS43 KMPX 221725
TAFMSP
TAF
KMSP 221725Z 2218/2324 33014G21KT P6SM SCT035
     FM230000 33012KT P6SM SKC
     FM231500 35008KT P6SM SCT040=



000
FTUS43 KMPX 221725
TAFRWF
TAF
KRWF 221725Z 2218/2318 34014G22KT P6SM SCT030
     FM230000 34007KT P6SM SKC
     FM231600 36006KT P6SM SCT040=



000
FTUS43 KMPX 221725
TAFAXN
TAF
KAXN 221725Z 2218/2318 34013G22KT P6SM SCT035
     FM222300 34008KT P6SM SKC
     FM231600 34008KT P6SM SCT040=



000
FTUS43 KMPX 221553 AAB
TAFSTC
TAF AMD
KSTC 221553Z 2216/2312 32014G21KT P6SM OVC021
     FM221700 33014G22KT P6SM SCT025
     FM230000 34008KT P6SM FEW250=



000
FTUS43 KMPX 221551 AAB
TAFRWF
TAF AMD
KRWF 221551Z 2216/2312 34015G22KT P6SM BKN020
     FM221800 35012KT P6SM SCT035
     FM230000 34007KT P6SM FEW250=



000
FTUS43 KMPX 221550 AAB
TAFMSP
TAF AMD
KMSP 221550Z 2216/2318 34014G22KT P6SM SCT025 SCT150
      TEMPO 2216/2218 BKN020
     FM221800 32017G24KT P6SM SCT030 SCT250
     FM230000 35007KT P6SM FEW250
     FM231000 01004KT P6SM SKC=



000
FTUS43 KMPX 221500 AAB
TAFEAU
TAF AMD
KEAU 221500Z 2215/2312 32014G20KT P6SM SCT025
      TEMPO 2216/2218 BKN020
     FM221800 32014G21KT P6SM SCT035 SCT250
     FM230000 35007KT P6SM FEW250=



000
FTUS43 KMPX 221453 AAA
TAFMSP
TAF AMD
KMSP 221453Z 2215/2318 34016G25KT P6SM SCT025 SCT150
      TEMPO 2215/2217 BKN020
     FM221700 32017G24KT P6SM SCT030 SCT250
     FM230000 35007KT P6SM FEW250
     FM231000 01004KT P6SM SKC=



000
FTUS43 KMPX 221358 AAA
TAFEAU
TAF AMD
KEAU 221358Z 2214/2312 29018G25KT P6SM FEW017 SCT025
     FM221500 29013G19KT P6SM FEW020 SCT045
     FM221700 32014G21KT P6SM SCT035 SCT250
     FM230000 35007KT P6SM FEW250=



000
FTUS43 KMPX 221330 AAA
TAFRWF
TAF AMD
KRWF 221330Z 2214/2312 33015G23KT P6SM VCSH BKN025
      TEMPO 2214/2216 BKN015
     FM221600 34013G19KT P6SM SCT020 BKN035
     FM221900 35012KT P6SM SCT035
     FM230000 34007KT P6SM FEW250=



000
FTUS43 KMPX 221323 AAA
TAFSTC
TAF AMD
KSTC 221323Z 2213/2312 31016G20KT P6SM SCT025
     FM221400 31016G22KT P6SM BKN020
     FM221600 33017G25KT P6SM SCT020 SCT250
     FM230000 34008KT P6SM FEW250=



000
FTUS43 KMPX 221200 AAA
TAFAXN
TAF AMD
KAXN 221257Z 2213/2312 31014KT P6SM SCT012 OVC023
      TEMPO 2213/2215 BKN012
     FM221500 34017G24KT P6SM SCT023 SCT250
     FM222100 34012KT P6SM FEW250
     FM230200 35006KT P6SM SKC=



000
FTUS43 KMPX 221200 AAA
TAFEAU
TAF AMD
KEAU 221251Z 2213/2312 23009KT P6SM SCT027 BKN045
     FM221500 29013G19KT P6SM FEW020 SCT045
     FM221700 32014G21KT P6SM SCT035 SCT250
     FM230000 35007KT P6SM FEW250=



000
FTUS43 KMPX 221100
TAFSTC
TAF
KSTC 221130Z 2212/2312 27010KT P6SM SCT017 BKN200
      TEMPO 2213/2216 BKN017
     FM221600 33017G25KT P6SM SCT020 SCT250
     FM230000 34008KT P6SM FEW250=



000
FTUS43 KMPX 221100
TAFMSP
TAF
KMSP 221130Z 2212/2318 30014G21KT P6SM SCT020 BKN250
      TEMPO 2215/2217 BKN020
     FM221700 32017G24KT P6SM SCT030 SCT250
     FM230000 35007KT P6SM FEW250
     FM231000 01004KT P6SM SKC=



000
FTUS43 KMPX 221100
TAFAXN
TAF
KAXN 221130Z 2212/2312 31014KT P6SM SCT008 OVC014
      TEMPO 2212/2215 BKN008
     FM221500 34017G24KT P6SM SCT016 SCT250
     FM222100 34012KT P6SM FEW250
     FM230200 35006KT P6SM SKC=



000
FTUS43 KMPX 221100
TAFEAU
TAF
KEAU 221130Z 2212/2312 23010KT P6SM SCT015 BKN028
      TEMPO 2212/2215 BKN015
     FM221500 27013G19KT P6SM SCT015 BKN035
     FM221700 32014G21KT P6SM SCT035 SCT250
     FM230000 35007KT P6SM FEW250=



000
FTUS43 KMPX 221100
TAFRWF
TAF
KRWF 221130Z 2212/2312 32012G18KT P6SM VCTS SCT015 BKN035CB OVC080
      TEMPO 2212/2215 6SM -SHRA BKN015
     FM221500 34013G19KT P6SM SCT020 BKN035
     FM221900 35012KT P6SM SCT035
     FM230000 34007KT P6SM FEW250=



    US Dept of Commerce
    National Oceanic and Atmospheric Administration
    National Weather Service
    1325 East West Highway
    Silver Spring, MD 20910
    Page Author: NWS Internet Services Team
Disclaimer
Information Quality
Credits
Glossary
Privacy Policy
Freedom of Information Act (FOIA)
About Us
Career Opportunities